createdAt,value
2019-03-17T00:00:05.122Z,7.80
2019-03-17T00:01:04.196Z,7.80
2019-03-17T00:02:04.342Z,7.80
2019-03-17T00:03:04.817Z,7.80
2019-03-17T00:04:05.047Z,7.80
2019-03-17T00:05:05.161Z,7.80
2019-03-17T00:06:06.716Z,7.80
2019-03-17T00:07:04.476Z,7.80
2019-03-17T00:08:04.738Z,7.80
2019-03-17T00:09:04.391Z,7.80
2019-03-17T00:10:04.388Z,7.80
2019-03-17T00:11:04.668Z,7.80
2019-03-17T00:12:04.815Z,7.80
2019-03-17T00:13:04.879Z,7.80
2019-03-17T00:14:04.846Z,7.80
2019-03-17T00:15:06.224Z,7.80
2019-03-17T00:16:04.334Z,7.80
2019-03-17T00:17:04.910Z,7.80
2019-03-17T00:18:05.009Z,7.80
2019-03-17T00:19:04.358Z,7.80
2019-03-17T00:20:04.424Z,7.80
2019-03-17T00:21:04.583Z,7.80
2019-03-17T00:22:04.732Z,7.80
2019-03-17T00:23:04.834Z,7.80
2019-03-17T00:24:04.837Z,7.70
2019-03-17T00:25:09.405Z,7.70
2019-03-17T00:26:04.905Z,7.70
2019-03-17T00:27:04.261Z,7.80
2019-03-17T00:28:04.482Z,7.70
2019-03-17T00:29:04.497Z,7.70
2019-03-17T00:30:04.691Z,7.70
2019-03-17T00:31:04.718Z,7.70
2019-03-17T00:32:05.191Z,7.70
2019-03-17T00:33:04.925Z,7.70
2019-03-17T00:34:05.034Z,7.70
2019-03-17T00:35:04.217Z,7.70
2019-03-17T00:36:04.738Z,7.70
2019-03-17T00:37:04.322Z,7.70
2019-03-17T00:38:05.024Z,7.70
2019-03-17T00:39:05.083Z,7.70
2019-03-17T00:40:04.593Z,7.70
2019-03-17T00:41:04.630Z,7.70
2019-03-17T00:42:04.798Z,7.70
2019-03-17T00:43:10.161Z,7.70
2019-03-17T00:44:04.610Z,7.60
2019-03-17T00:45:05.027Z,7.60
2019-03-17T00:46:05.192Z,7.60
2019-03-17T00:47:04.345Z,7.60
2019-03-17T00:48:04.751Z,7.60
2019-03-17T00:49:04.761Z,7.60
2019-03-17T00:50:05.192Z,7.60
2019-03-17T00:51:04.643Z,7.60
2019-03-17T00:52:05.128Z,7.60
2019-03-17T00:53:04.743Z,7.60
2019-03-17T00:54:04.946Z,7.50
2019-03-17T00:55:04.288Z,7.50
2019-03-17T00:56:04.313Z,7.50
2019-03-17T00:57:04.772Z,7.50
2019-03-17T00:58:04.785Z,7.50
2019-03-17T00:59:04.367Z,7.50
2019-03-17T01:00:04.876Z,7.50
2019-03-17T01:01:04.171Z,7.50
2019-03-17T01:02:04.714Z,7.50
2019-03-17T01:03:04.993Z,7.50
2019-03-17T01:04:04.576Z,7.50
2019-03-17T01:05:04.531Z,7.50
2019-03-17T01:06:04.646Z,7.50
2019-03-17T01:07:04.898Z,7.50
2019-03-17T01:08:09.488Z,7.50
2019-03-17T01:09:04.977Z,7.50
2019-03-17T01:10:05.146Z,7.50
2019-03-17T01:11:04.511Z,7.50
2019-03-17T01:12:04.460Z,7.50
2019-03-17T01:13:04.522Z,7.50
2019-03-17T01:14:04.608Z,7.50
2019-03-17T01:15:04.185Z,7.50
2019-03-17T01:16:04.829Z,7.50
2019-03-17T01:17:04.869Z,7.50
2019-03-17T01:18:05.035Z,7.40
2019-03-17T01:19:05.205Z,7.40
2019-03-17T01:20:04.341Z,7.40
2019-03-17T01:21:04.650Z,7.50
2019-03-17T01:22:04.720Z,7.40
2019-03-17T01:23:04.991Z,7.40
2019-03-17T01:24:05.058Z,7.40
2019-03-17T01:25:05.236Z,7.40
2019-03-17T01:26:04.427Z,7.40
2019-03-17T01:27:04.633Z,7.40
2019-03-17T01:28:05.047Z,7.40
2019-03-17T01:29:04.468Z,7.40
2019-03-17T01:30:04.878Z,7.40
2019-03-17T01:31:04.489Z,7.40
2019-03-17T01:32:04.887Z,7.40
2019-03-17T01:33:04.402Z,7.40
2019-03-17T01:34:04.413Z,7.40
2019-03-17T01:35:09.384Z,7.40
2019-03-17T01:36:04.775Z,7.40
2019-03-17T01:37:04.792Z,7.40
2019-03-17T01:38:04.566Z,7.40
2019-03-17T01:39:04.900Z,7.40
2019-03-17T01:40:04.310Z,7.40
2019-03-17T01:41:04.812Z,7.40
2019-03-17T01:42:04.538Z,7.40
2019-03-17T01:43:09.678Z,7.40
2019-03-17T01:44:05.130Z,7.30
2019-03-17T01:45:04.741Z,7.30
2019-03-17T01:46:04.909Z,7.30
2019-03-17T01:47:04.556Z,7.30
2019-03-17T01:48:04.702Z,7.30
2019-03-17T01:49:04.783Z,7.30
2019-03-17T01:50:04.875Z,7.30
2019-03-17T01:51:04.847Z,7.30
2019-03-17T01:52:05.039Z,7.30
2019-03-17T01:53:04.325Z,7.30
2019-03-17T01:54:04.937Z,7.30
2019-03-17T01:55:04.540Z,7.30
2019-03-17T01:56:04.742Z,7.30
2019-03-17T01:57:04.216Z,7.30
2019-03-17T01:58:04.846Z,7.30
2019-03-17T01:59:05.191Z,7.30
2019-03-17T02:00:04.400Z,7.30
2019-03-17T02:01:04.798Z,7.30
2019-03-17T02:02:04.323Z,7.20
2019-03-17T02:03:04.389Z,7.20
2019-03-17T02:04:04.411Z,7.20
2019-03-17T02:05:04.518Z,7.20
2019-03-17T02:06:04.748Z,7.20
2019-03-17T02:07:05.115Z,7.20
2019-03-17T02:08:05.276Z,7.20
2019-03-17T02:09:04.656Z,7.20
2019-03-17T02:10:04.831Z,7.20
2019-03-17T02:11:04.272Z,7.20
2019-03-17T02:12:04.891Z,7.20
2019-03-17T02:13:05.100Z,7.20
2019-03-17T02:14:04.344Z,7.20
2019-03-17T02:15:04.527Z,7.20
2019-03-17T02:16:05.064Z,7.20
2019-03-17T02:17:04.255Z,7.20
2019-03-17T02:18:05.109Z,7.20
2019-03-17T02:19:05.064Z,7.20
2019-03-17T02:20:04.334Z,7.20
2019-03-17T02:21:04.492Z,7.20
2019-03-17T02:22:04.644Z,7.20
2019-03-17T02:23:04.746Z,7.20
2019-03-17T02:24:04.869Z,7.20
2019-03-17T02:25:04.981Z,7.20
2019-03-17T02:26:04.716Z,7.20
2019-03-17T02:27:04.495Z,7.20
2019-03-17T02:28:04.473Z,7.20
2019-03-17T02:29:04.581Z,7.20
2019-03-17T02:30:04.651Z,7.20
2019-03-17T02:31:05.030Z,7.20
2019-03-17T02:32:04.541Z,7.20
2019-03-17T02:33:04.606Z,7.20
2019-03-17T02:34:05.059Z,7.20
2019-03-17T02:35:04.439Z,7.20
2019-03-17T02:36:04.557Z,7.20
2019-03-17T02:37:04.511Z,7.20
2019-03-17T02:38:04.723Z,7.20
2019-03-17T02:39:04.628Z,7.20
2019-03-17T02:40:05.023Z,7.20
2019-03-17T02:41:04.517Z,7.20
2019-03-17T02:42:04.501Z,7.30
2019-03-17T02:43:09.736Z,7.30
2019-03-17T02:44:05.119Z,7.30
2019-03-17T02:45:04.412Z,7.30
2019-03-17T02:46:04.908Z,7.30
2019-03-17T02:47:04.947Z,7.30
2019-03-17T02:48:04.996Z,7.30
2019-03-17T02:49:05.073Z,7.30
2019-03-17T02:50:04.518Z,7.30
2019-03-17T02:51:04.429Z,7.30
2019-03-17T02:52:04.954Z,7.30
2019-03-17T02:53:04.641Z,7.30
2019-03-17T02:54:04.242Z,7.30
2019-03-17T02:55:04.333Z,7.30
2019-03-17T02:56:05.011Z,7.30
2019-03-17T02:57:05.179Z,7.30
2019-03-17T02:58:04.408Z,7.30
2019-03-17T02:59:04.528Z,7.30
2019-03-17T03:00:05.159Z,7.30
2019-03-17T03:01:04.498Z,7.30
2019-03-17T03:02:04.925Z,7.30
2019-03-17T03:03:10.052Z,7.30
2019-03-17T03:04:04.545Z,7.30
2019-03-17T03:05:04.662Z,7.30
2019-03-17T03:06:04.640Z,7.30
2019-03-17T03:07:04.817Z,7.30
2019-03-17T03:08:04.795Z,7.30
2019-03-17T03:09:05.129Z,7.30
2019-03-17T03:10:04.387Z,7.30
2019-03-17T03:11:04.532Z,7.30
2019-03-17T03:12:05.025Z,7.30
2019-03-17T03:13:05.056Z,7.30
2019-03-17T03:14:05.126Z,7.30
2019-03-17T03:15:05.151Z,7.30
2019-03-17T03:16:05.825Z,7.30
2019-03-17T03:17:04.849Z,7.30
2019-03-17T03:18:04.396Z,7.30
2019-03-17T03:19:04.427Z,7.40
2019-03-17T03:20:04.926Z,7.40
2019-03-17T03:21:04.601Z,7.40
2019-03-17T03:22:04.565Z,7.40
2019-03-17T03:23:05.098Z,7.40
2019-03-17T03:24:04.891Z,7.40
2019-03-17T03:25:05.091Z,7.40
2019-03-17T03:26:05.169Z,7.40
2019-03-17T03:27:04.369Z,7.40
2019-03-17T03:28:04.561Z,7.30
2019-03-17T03:29:04.844Z,7.40
2019-03-17T03:30:04.906Z,7.30
2019-03-17T03:31:05.104Z,7.30
2019-03-17T03:32:04.563Z,7.30
2019-03-17T03:33:04.863Z,7.30
2019-03-17T03:34:04.449Z,7.30
2019-03-17T03:35:04.445Z,7.30
2019-03-17T03:36:11.156Z,7.30
2019-03-17T03:37:04.499Z,7.30
2019-03-17T03:38:04.894Z,7.30
2019-03-17T03:39:05.169Z,7.30
2019-03-17T03:40:04.347Z,7.30
2019-03-17T03:41:04.474Z,7.30
2019-03-17T03:42:04.950Z,7.30
2019-03-17T03:43:04.982Z,7.30
2019-03-17T03:44:05.158Z,7.30
2019-03-17T03:45:05.133Z,7.30
2019-03-17T03:46:04.501Z,7.30
2019-03-17T03:47:04.589Z,7.30
2019-03-17T03:48:05.134Z,7.30
2019-03-17T03:49:04.451Z,7.30
2019-03-17T03:50:04.512Z,7.30
2019-03-17T03:51:05.020Z,7.30
2019-03-17T03:52:04.560Z,7.30
2019-03-17T03:53:04.991Z,7.30
2019-03-17T03:54:05.161Z,7.30
2019-03-17T03:55:04.751Z,7.20
2019-03-17T03:56:04.319Z,7.30
2019-03-17T03:57:05.033Z,7.30
2019-03-17T03:58:05.141Z,7.30
2019-03-17T03:59:09.536Z,7.20
2019-03-17T04:00:04.941Z,7.20
2019-03-17T04:01:04.253Z,7.30
2019-03-17T04:02:04.620Z,7.20
2019-03-17T04:03:05.143Z,7.20
2019-03-17T04:04:05.124Z,7.20
2019-03-17T04:05:04.241Z,7.20
2019-03-17T04:06:04.794Z,7.30
2019-03-17T04:07:04.907Z,7.20
2019-03-17T04:08:05.111Z,7.30
2019-03-17T04:09:05.008Z,7.30
2019-03-17T04:10:05.324Z,7.30
2019-03-17T04:11:04.778Z,7.30
2019-03-17T04:12:04.465Z,7.30
2019-03-17T04:13:04.627Z,7.30
2019-03-17T04:14:05.089Z,7.30
2019-03-17T04:15:04.398Z,7.20
2019-03-17T04:16:04.455Z,7.30
2019-03-17T04:17:04.546Z,7.30
2019-03-17T04:18:04.567Z,7.20
2019-03-17T04:19:04.868Z,7.20
2019-03-17T04:20:05.020Z,7.20
2019-03-17T04:21:05.189Z,7.20
2019-03-17T04:22:04.310Z,7.20
2019-03-17T04:23:04.784Z,7.20
2019-03-17T04:24:04.785Z,7.20
2019-03-17T04:25:05.125Z,7.20
2019-03-17T04:26:04.593Z,7.20
2019-03-17T04:27:04.462Z,7.20
2019-03-17T04:28:04.456Z,7.20
2019-03-17T04:29:04.540Z,7.10
2019-03-17T04:30:04.715Z,7.10
2019-03-17T04:31:04.889Z,7.10
2019-03-17T04:32:04.318Z,7.10
2019-03-17T04:33:04.765Z,7.10
2019-03-17T04:34:04.754Z,7.10
2019-03-17T04:35:05.009Z,7.10
2019-03-17T04:36:04.384Z,7.10
2019-03-17T04:37:04.848Z,7.00
2019-03-17T04:38:04.917Z,7.00
2019-03-17T04:39:04.332Z,7.00
2019-03-17T04:40:04.533Z,7.00
2019-03-17T04:41:05.135Z,7.00
2019-03-17T04:42:05.099Z,7.00
2019-03-17T04:43:10.276Z,7.00
2019-03-17T04:44:04.776Z,7.00
2019-03-17T04:45:04.803Z,7.00
2019-03-17T04:46:04.977Z,7.00
2019-03-17T04:47:05.100Z,7.10
2019-03-17T04:48:05.124Z,7.10
2019-03-17T04:49:04.250Z,7.10
2019-03-17T04:50:04.265Z,7.10
2019-03-17T04:51:04.489Z,7.10
2019-03-17T04:52:04.953Z,7.10
2019-03-17T04:53:04.444Z,7.10
2019-03-17T04:54:04.892Z,7.10
2019-03-17T04:55:05.058Z,7.10
2019-03-17T04:56:04.388Z,7.10
2019-03-17T04:57:05.246Z,7.20
2019-03-17T04:58:04.316Z,7.20
2019-03-17T04:59:04.377Z,7.20
2019-03-17T05:00:04.682Z,7.20
2019-03-17T05:01:04.268Z,7.20
2019-03-17T05:02:04.305Z,7.20
2019-03-17T05:03:04.872Z,7.20
2019-03-17T05:04:04.471Z,7.30
2019-03-17T05:05:04.467Z,7.30
2019-03-17T05:06:04.674Z,7.30
2019-03-17T05:07:10.031Z,7.30
2019-03-17T05:08:05.203Z,7.30
2019-03-17T05:09:04.598Z,7.30
2019-03-17T05:10:04.819Z,7.30
2019-03-17T05:11:05.184Z,7.40
2019-03-17T05:12:04.816Z,7.30
2019-03-17T05:13:04.919Z,7.30
2019-03-17T05:14:04.931Z,7.40
2019-03-17T05:15:04.765Z,7.40
2019-03-17T05:16:04.710Z,7.40
2019-03-17T05:17:04.555Z,7.40
2019-03-17T05:18:04.996Z,7.40
2019-03-17T05:19:04.477Z,7.40
2019-03-17T05:20:04.776Z,7.40
2019-03-17T05:21:05.005Z,7.40
2019-03-17T05:22:04.328Z,7.40
2019-03-17T05:23:05.854Z,7.40
2019-03-17T05:24:04.858Z,7.40
2019-03-17T05:25:05.694Z,7.40
2019-03-17T05:26:04.983Z,7.40
2019-03-17T05:27:05.278Z,7.40
2019-03-17T05:28:04.445Z,7.40
2019-03-17T05:29:04.311Z,7.40
2019-03-17T05:30:04.645Z,7.40
2019-03-17T05:31:05.177Z,7.40
2019-03-17T05:32:04.770Z,7.40
2019-03-17T05:33:05.227Z,7.40
2019-03-17T05:34:04.506Z,7.40
2019-03-17T05:35:04.565Z,7.40
2019-03-17T05:36:04.479Z,7.40
2019-03-17T05:37:06.359Z,7.40
2019-03-17T05:38:04.587Z,7.40
2019-03-17T05:39:04.809Z,7.40
2019-03-17T05:40:05.133Z,7.40
2019-03-17T05:41:04.279Z,7.40
2019-03-17T05:42:04.892Z,7.40
2019-03-17T05:43:05.519Z,7.40
2019-03-17T05:44:04.462Z,7.40
2019-03-17T05:45:05.025Z,7.40
2019-03-17T05:46:04.397Z,7.40
2019-03-17T05:47:04.630Z,7.40
2019-03-17T05:48:04.569Z,7.40
2019-03-17T05:49:04.990Z,7.40
2019-03-17T05:50:05.101Z,7.40
2019-03-17T05:51:05.021Z,7.40
2019-03-17T05:52:04.654Z,7.50
2019-03-17T05:53:04.828Z,7.50
2019-03-17T05:54:04.606Z,7.50
2019-03-17T05:55:04.619Z,7.50
2019-03-17T05:56:05.220Z,7.50
2019-03-17T05:57:04.410Z,7.50
2019-03-17T05:58:04.574Z,7.60
2019-03-17T05:59:04.568Z,7.60
2019-03-17T06:00:04.673Z,7.70
2019-03-17T06:01:04.199Z,7.70
2019-03-17T06:02:04.342Z,7.80
2019-03-17T06:03:09.955Z,7.90
2019-03-17T06:04:04.655Z,8.00
2019-03-17T06:05:04.781Z,8.10
2019-03-17T06:06:04.244Z,8.20
2019-03-17T06:07:04.492Z,8.20
2019-03-17T06:08:04.567Z,8.30
2019-03-17T06:09:05.005Z,8.40
2019-03-17T06:10:05.022Z,8.40
2019-03-17T06:11:04.832Z,8.50
2019-03-17T06:12:05.029Z,8.60
2019-03-17T06:13:05.245Z,8.70
2019-03-17T06:14:04.638Z,8.80
2019-03-17T06:15:04.876Z,8.90
2019-03-17T06:16:04.747Z,9.00
2019-03-17T06:17:05.212Z,9.10
2019-03-17T06:18:04.306Z,9.20
2019-03-17T06:19:04.999Z,9.30
2019-03-17T06:20:04.534Z,9.40
2019-03-17T06:21:04.756Z,9.50
2019-03-17T06:22:04.844Z,9.60
2019-03-17T06:23:05.135Z,9.70
2019-03-17T06:24:04.410Z,9.80
2019-03-17T06:25:04.965Z,9.90
2019-03-17T06:26:04.957Z,10.00
2019-03-17T06:27:04.992Z,10.00
2019-03-17T06:28:04.751Z,10.10
2019-03-17T06:29:04.782Z,10.10
2019-03-17T06:30:04.488Z,10.20
2019-03-17T06:31:04.669Z,10.20
2019-03-17T06:32:04.758Z,10.30
2019-03-17T06:33:04.953Z,10.40
2019-03-17T06:34:05.125Z,10.40
2019-03-17T06:35:04.282Z,10.50
2019-03-17T06:36:04.507Z,10.50
2019-03-17T06:37:04.715Z,10.60
2019-03-17T06:38:04.925Z,10.60
2019-03-17T06:39:04.752Z,10.70
2019-03-17T06:40:05.286Z,10.80
2019-03-17T06:41:04.477Z,10.80
2019-03-17T06:42:05.006Z,11.00
2019-03-17T06:43:09.445Z,11.00
2019-03-17T06:44:04.807Z,11.10
2019-03-17T06:45:04.394Z,11.20
2019-03-17T06:46:04.850Z,11.30
2019-03-17T06:47:05.933Z,11.30
2019-03-17T06:48:04.780Z,11.40
2019-03-17T06:49:04.938Z,11.40
2019-03-17T06:50:04.606Z,11.40
2019-03-17T06:51:04.826Z,11.40
2019-03-17T06:52:05.040Z,11.40
2019-03-17T06:53:04.912Z,11.40
2019-03-17T06:54:05.071Z,11.40
2019-03-17T06:55:05.075Z,11.40
2019-03-17T06:56:04.513Z,11.40
2019-03-17T06:57:04.576Z,11.40
2019-03-17T06:58:04.535Z,11.40
2019-03-17T06:59:04.487Z,11.40
2019-03-17T07:00:04.757Z,11.40
2019-03-17T07:01:04.254Z,11.50
2019-03-17T07:02:04.161Z,11.50
2019-03-17T07:03:04.199Z,11.50
2019-03-17T07:04:04.826Z,11.60
2019-03-17T07:05:04.886Z,11.60
2019-03-17T07:06:04.765Z,11.60
2019-03-17T07:07:05.112Z,11.60
2019-03-17T07:08:04.711Z,11.70
2019-03-17T07:09:04.653Z,11.70
2019-03-17T07:10:04.726Z,11.70
2019-03-17T07:11:04.652Z,11.70
2019-03-17T07:12:04.684Z,11.80
2019-03-17T07:13:04.646Z,11.80
2019-03-17T07:14:04.529Z,11.80
2019-03-17T07:15:04.954Z,11.80
2019-03-17T07:16:04.587Z,11.90
2019-03-17T07:17:04.686Z,11.90
2019-03-17T07:18:04.865Z,11.90
2019-03-17T07:19:04.251Z,11.90
2019-03-17T07:20:04.355Z,11.90
2019-03-17T07:21:04.318Z,11.90
2019-03-17T07:22:04.294Z,11.90
2019-03-17T07:23:04.569Z,12.00
2019-03-17T07:24:04.501Z,12.00
2019-03-17T07:25:05.072Z,12.10
2019-03-17T07:26:05.067Z,12.10
2019-03-17T07:27:04.432Z,12.10
2019-03-17T07:28:04.397Z,12.10
2019-03-17T07:29:04.918Z,12.20
2019-03-17T07:30:05.036Z,12.20
2019-03-17T07:31:04.653Z,12.20
2019-03-17T07:32:04.605Z,12.20
2019-03-17T07:33:04.552Z,12.20
2019-03-17T07:34:04.583Z,12.20
2019-03-17T07:35:04.586Z,12.20
2019-03-17T07:36:04.137Z,12.20
2019-03-17T07:37:04.125Z,12.20
2019-03-17T07:38:04.257Z,12.30
2019-03-17T07:39:11.461Z,12.30
2019-03-17T07:40:04.844Z,12.30
2019-03-17T07:41:04.284Z,12.30
2019-03-17T07:42:04.817Z,12.30
2019-03-17T07:43:09.391Z,12.40
2019-03-17T07:44:04.530Z,12.40
2019-03-17T07:45:04.466Z,12.40
2019-03-17T07:46:04.604Z,12.40
2019-03-17T07:47:04.486Z,12.40
2019-03-17T07:48:04.524Z,12.40
2019-03-17T07:49:04.518Z,12.40
2019-03-17T07:50:04.958Z,12.40
2019-03-17T07:51:05.080Z,12.40
2019-03-17T07:52:04.513Z,12.40
2019-03-17T07:53:04.656Z,12.40
2019-03-17T07:54:04.683Z,12.40
2019-03-17T07:55:04.789Z,12.40
2019-03-17T07:56:04.815Z,12.40
2019-03-17T07:57:04.606Z,12.40
2019-03-17T07:58:04.547Z,12.40
2019-03-17T07:59:05.001Z,12.40
2019-03-17T08:00:05.077Z,12.40
2019-03-17T08:01:04.119Z,12.40
2019-03-17T08:02:05.292Z,12.40
2019-03-17T08:03:04.991Z,12.50
2019-03-17T08:04:05.006Z,12.50
2019-03-17T08:05:05.051Z,12.50
2019-03-17T08:06:04.137Z,12.50
2019-03-17T08:07:04.282Z,12.50
2019-03-17T08:08:09.042Z,12.50
2019-03-17T08:09:04.433Z,12.50
2019-03-17T08:10:04.932Z,12.50
2019-03-17T08:11:04.985Z,12.60
2019-03-17T08:12:04.370Z,12.60
2019-03-17T08:13:04.481Z,12.60
2019-03-17T08:14:04.629Z,12.60
2019-03-17T08:15:04.886Z,12.60
2019-03-17T08:16:04.335Z,12.70
2019-03-17T08:17:04.907Z,12.70
2019-03-17T08:18:05.025Z,12.70
2019-03-17T08:19:04.782Z,12.70
2019-03-17T08:20:04.746Z,12.70
2019-03-17T08:21:04.678Z,12.70
2019-03-17T08:22:04.861Z,12.70
2019-03-17T08:23:04.866Z,12.70
2019-03-17T08:24:04.349Z,12.70
2019-03-17T08:25:04.609Z,12.70
2019-03-17T08:26:04.685Z,12.80
2019-03-17T08:27:04.792Z,12.80
2019-03-17T08:28:04.881Z,12.80
2019-03-17T08:29:04.973Z,12.80
2019-03-17T08:30:04.197Z,12.70
2019-03-17T08:31:04.173Z,12.70
2019-03-17T08:32:04.206Z,12.70
2019-03-17T08:33:04.380Z,12.70
2019-03-17T08:34:04.868Z,12.70
2019-03-17T08:35:04.456Z,12.70
2019-03-17T08:36:04.456Z,12.70
2019-03-17T08:37:04.460Z,12.70
2019-03-17T08:38:04.718Z,12.70
2019-03-17T08:39:04.986Z,12.70
2019-03-17T08:40:04.907Z,12.80
2019-03-17T08:41:04.878Z,12.80
2019-03-17T08:42:04.472Z,12.80
2019-03-17T08:43:04.767Z,12.80
2019-03-17T08:44:04.762Z,12.80
2019-03-17T08:45:04.730Z,12.80
2019-03-17T08:46:04.817Z,12.80
2019-03-17T08:47:04.961Z,12.80
2019-03-17T08:48:04.264Z,12.70
2019-03-17T08:49:04.334Z,12.70
2019-03-17T08:50:04.318Z,12.70
2019-03-17T08:51:04.470Z,12.70
2019-03-17T08:52:04.515Z,12.70
2019-03-17T08:53:05.049Z,12.70
2019-03-17T08:54:04.986Z,12.60
2019-03-17T08:55:05.102Z,12.60
2019-03-17T08:56:04.465Z,12.60
2019-03-17T08:57:05.003Z,12.60
2019-03-17T08:58:04.193Z,12.60
2019-03-17T08:59:04.533Z,12.60
2019-03-17T09:00:04.472Z,12.60
2019-03-17T09:01:04.539Z,12.60
2019-03-17T09:02:05.021Z,12.70
2019-03-17T09:03:04.413Z,12.70
2019-03-17T09:04:04.487Z,12.70
2019-03-17T09:05:04.415Z,12.70
2019-03-17T09:06:04.620Z,12.70
2019-03-17T09:07:05.106Z,12.70
2019-03-17T09:08:04.165Z,12.70
2019-03-17T09:09:04.296Z,12.80
2019-03-17T09:10:04.895Z,12.80
2019-03-17T09:11:04.789Z,12.80
2019-03-17T09:12:04.794Z,12.80
2019-03-17T09:13:04.477Z,12.90
2019-03-17T09:14:04.335Z,12.90
2019-03-17T09:15:04.194Z,12.90
2019-03-17T09:16:04.164Z,13.00
2019-03-17T09:17:13.990Z,13.00
2019-03-17T09:18:04.158Z,13.10
2019-03-17T09:19:04.457Z,13.10
2019-03-17T09:20:04.555Z,13.10
2019-03-17T09:21:04.565Z,13.10
2019-03-17T09:22:04.620Z,13.10
2019-03-17T09:23:04.997Z,13.10
2019-03-17T09:24:16.503Z,13.10
2019-03-17T09:25:04.959Z,13.10
2019-03-17T09:26:05.112Z,13.10
2019-03-17T09:27:04.324Z,13.10
2019-03-17T09:28:04.325Z,13.10
2019-03-17T09:29:04.427Z,13.10
2019-03-17T09:30:04.967Z,13.10
2019-03-17T09:31:07.219Z,13.10
2019-03-17T09:32:05.063Z,13.10
2019-03-17T09:33:04.498Z,13.10
2019-03-17T09:34:04.935Z,13.10
2019-03-17T09:35:04.496Z,13.10
2019-03-17T09:36:04.577Z,13.20
2019-03-17T09:37:04.735Z,13.20
2019-03-17T09:38:04.742Z,13.20
2019-03-17T09:39:04.641Z,13.20
2019-03-17T09:40:04.714Z,13.20
2019-03-17T09:41:04.748Z,13.20
2019-03-17T09:42:04.591Z,13.20
2019-03-17T09:43:09.785Z,13.20
2019-03-17T09:44:05.163Z,13.20
2019-03-17T09:45:05.095Z,13.20
2019-03-17T09:46:04.755Z,13.20
2019-03-17T09:47:04.644Z,13.20
2019-03-17T09:48:04.707Z,13.20
2019-03-17T09:49:04.636Z,13.10
2019-03-17T09:50:04.670Z,13.10
2019-03-17T09:51:04.238Z,13.10
2019-03-17T09:52:04.334Z,13.10
2019-03-17T09:53:04.160Z,13.10
2019-03-17T09:54:04.379Z,13.10
2019-03-17T09:55:04.269Z,13.10
2019-03-17T09:56:04.329Z,13.10
2019-03-17T09:57:04.969Z,13.20
2019-03-17T09:58:04.869Z,13.20
2019-03-17T09:59:04.366Z,13.20
2019-03-17T10:00:04.625Z,13.20
2019-03-17T10:01:04.872Z,13.30
2019-03-17T10:02:05.074Z,13.30
2019-03-17T10:03:04.968Z,13.30
2019-03-17T10:04:05.118Z,13.30
2019-03-17T10:05:05.059Z,13.40
2019-03-17T10:06:04.103Z,13.40
2019-03-17T10:07:04.347Z,13.40
2019-03-17T10:08:04.360Z,13.50
2019-03-17T10:09:04.420Z,13.50
2019-03-17T10:10:04.816Z,13.50
2019-03-17T10:11:04.746Z,13.60
2019-03-17T10:12:04.914Z,13.60
2019-03-17T10:13:04.141Z,13.60
2019-03-17T10:14:04.228Z,13.50
2019-03-17T10:15:04.721Z,13.50
2019-03-17T10:16:04.822Z,13.50
2019-03-17T10:17:04.139Z,13.50
2019-03-17T10:18:05.072Z,13.50
2019-03-17T10:19:04.122Z,13.50
2019-03-17T10:20:04.567Z,13.50
2019-03-17T10:21:04.983Z,13.50
2019-03-17T10:22:04.563Z,13.50
2019-03-17T10:23:04.174Z,13.50
2019-03-17T10:24:04.215Z,13.50
2019-03-17T10:25:04.248Z,13.50
2019-03-17T10:26:04.127Z,13.50
2019-03-17T10:27:04.297Z,13.50
2019-03-17T10:28:04.253Z,13.50
2019-03-17T10:29:04.238Z,13.50
2019-03-17T10:30:04.218Z,13.50
2019-03-17T10:31:04.285Z,13.40
2019-03-17T10:32:04.412Z,13.50
2019-03-17T10:33:04.687Z,13.50
2019-03-17T10:34:04.786Z,13.50
2019-03-17T10:35:04.698Z,13.50
2019-03-17T10:36:05.100Z,13.50
2019-03-17T10:37:04.531Z,13.50
2019-03-17T10:38:04.776Z,13.60
2019-03-17T10:39:12.171Z,13.60
2019-03-17T10:40:04.254Z,13.60
2019-03-17T10:41:04.250Z,13.60
2019-03-17T10:42:04.274Z,13.60
2019-03-17T10:43:09.467Z,13.60
2019-03-17T10:44:04.824Z,13.60
2019-03-17T10:45:04.265Z,13.60
2019-03-17T10:46:04.143Z,13.60
2019-03-17T10:47:04.330Z,13.50
2019-03-17T10:48:04.398Z,13.50
2019-03-17T10:49:04.423Z,13.50
2019-03-17T10:50:04.513Z,13.50
2019-03-17T10:51:04.623Z,13.60
2019-03-17T10:52:04.151Z,13.60
2019-03-17T10:53:04.406Z,13.50
2019-03-17T10:54:04.374Z,13.50
2019-03-17T10:55:04.356Z,13.50
2019-03-17T10:56:04.858Z,13.50
2019-03-17T10:57:04.867Z,13.50
2019-03-17T10:58:04.975Z,13.50
2019-03-17T10:59:04.876Z,13.50
2019-03-17T11:00:04.101Z,13.50
2019-03-17T11:01:04.134Z,13.50
2019-03-17T11:02:04.215Z,13.50
2019-03-17T11:03:04.207Z,13.60
2019-03-17T11:04:04.218Z,13.60
2019-03-17T11:05:04.491Z,13.70
2019-03-17T11:06:04.699Z,13.70
2019-03-17T11:07:04.194Z,13.80
2019-03-17T11:08:04.601Z,13.80
2019-03-17T11:09:05.094Z,13.90
2019-03-17T11:10:04.169Z,14.00
2019-03-17T11:11:04.876Z,14.00
2019-03-17T11:12:04.660Z,14.10
2019-03-17T11:13:04.724Z,14.10
2019-03-17T11:14:05.037Z,14.10
2019-03-17T11:15:04.329Z,14.20
2019-03-17T11:16:04.485Z,14.20
2019-03-17T11:17:04.568Z,14.20
2019-03-17T11:18:04.916Z,14.20
2019-03-17T11:19:05.063Z,14.20
2019-03-17T11:20:04.957Z,14.20
2019-03-17T11:21:05.030Z,14.20
2019-03-17T11:22:05.092Z,14.10
2019-03-17T11:23:05.085Z,14.10
2019-03-17T11:24:04.944Z,14.10
2019-03-17T11:25:04.502Z,14.10
2019-03-17T11:26:04.600Z,14.10
2019-03-17T11:27:04.985Z,14.10
2019-03-17T11:28:05.077Z,14.10
2019-03-17T11:29:04.313Z,14.20
2019-03-17T11:30:04.388Z,14.20
2019-03-17T11:31:04.391Z,14.30
2019-03-17T11:32:06.513Z,14.30
2019-03-17T11:33:04.314Z,14.40
2019-03-17T11:34:04.363Z,14.40
2019-03-17T11:35:04.460Z,14.50
2019-03-17T11:36:04.391Z,14.50
2019-03-17T11:37:04.356Z,14.50
2019-03-17T11:38:04.758Z,14.50
2019-03-17T11:39:04.716Z,14.50
2019-03-17T11:40:04.342Z,14.50
2019-03-17T11:41:04.678Z,14.50
2019-03-17T11:42:04.690Z,14.50
2019-03-17T11:43:09.304Z,14.50
2019-03-17T11:44:04.665Z,14.60
2019-03-17T11:45:05.159Z,14.60
2019-03-17T11:46:05.039Z,14.60
2019-03-17T11:47:04.968Z,14.70
2019-03-17T11:48:05.067Z,14.70
2019-03-17T11:49:05.081Z,14.70
2019-03-17T11:50:04.663Z,14.60
2019-03-17T11:51:04.629Z,14.60
2019-03-17T11:52:04.684Z,14.60
2019-03-17T11:53:04.216Z,14.50
2019-03-17T11:54:05.159Z,14.50
2019-03-17T11:55:04.249Z,14.50
2019-03-17T11:56:04.324Z,14.40
2019-03-17T11:57:04.420Z,14.40
2019-03-17T11:58:04.282Z,14.30
2019-03-17T11:59:04.338Z,14.30
2019-03-17T12:00:04.266Z,14.30
2019-03-17T12:01:04.279Z,14.20
2019-03-17T12:02:04.382Z,14.20
2019-03-17T12:03:04.260Z,14.20
2019-03-17T12:04:04.298Z,14.20
2019-03-17T12:05:04.880Z,14.20
2019-03-17T12:06:04.492Z,14.20
2019-03-17T12:07:04.410Z,14.20
2019-03-17T12:08:04.749Z,14.20
2019-03-17T12:09:04.483Z,14.30
2019-03-17T12:10:04.301Z,14.30
2019-03-17T12:11:04.231Z,14.30
2019-03-17T12:12:04.253Z,14.30
2019-03-17T12:13:04.798Z,14.30
2019-03-17T12:14:10.030Z,14.30
2019-03-17T12:15:04.412Z,14.40
2019-03-17T12:16:04.545Z,14.40
2019-03-17T12:17:04.450Z,14.40
2019-03-17T12:18:04.435Z,14.40
2019-03-17T12:19:04.636Z,14.40
2019-03-17T12:20:04.639Z,14.40
2019-03-17T12:21:04.092Z,14.40
2019-03-17T12:22:08.726Z,14.40
2019-03-17T12:23:05.074Z,14.40
2019-03-17T12:24:05.065Z,14.40
2019-03-17T12:25:04.997Z,14.40
2019-03-17T12:26:04.982Z,14.40
2019-03-17T12:27:04.488Z,14.40
2019-03-17T12:28:04.669Z,14.40
2019-03-17T12:29:04.682Z,14.40
2019-03-17T12:30:04.707Z,14.30
2019-03-17T12:31:04.761Z,14.30
2019-03-17T12:32:04.295Z,14.30
2019-03-17T12:33:04.205Z,14.30
2019-03-17T12:34:04.244Z,14.20
2019-03-17T12:35:04.246Z,14.20
2019-03-17T12:36:04.218Z,14.20
2019-03-17T12:37:04.177Z,14.20
2019-03-17T12:38:04.621Z,14.20
2019-03-17T12:39:05.051Z,14.20
2019-03-17T12:40:04.676Z,14.20
2019-03-17T12:41:04.680Z,14.20
2019-03-17T12:42:04.745Z,14.20
2019-03-17T12:43:04.259Z,14.20
2019-03-17T12:44:04.822Z,14.20
2019-03-17T12:45:04.892Z,14.20
2019-03-17T12:46:04.798Z,14.20
2019-03-17T12:47:04.254Z,14.20
2019-03-17T12:48:09.390Z,14.20
2019-03-17T12:49:04.704Z,14.10
2019-03-17T12:50:04.932Z,14.10
2019-03-17T12:51:05.040Z,14.00
2019-03-17T12:52:05.109Z,14.00
2019-03-17T12:53:07.697Z,13.90
2019-03-17T12:54:04.667Z,13.90
2019-03-17T12:55:04.944Z,13.90
2019-03-17T12:56:05.097Z,13.80
2019-03-17T12:57:05.039Z,13.80
2019-03-17T12:58:04.533Z,13.70
2019-03-17T12:59:04.565Z,13.60
2019-03-17T13:00:04.964Z,13.60
2019-03-17T13:01:04.839Z,13.60
2019-03-17T13:02:05.005Z,13.60
2019-03-17T13:03:04.923Z,13.50
2019-03-17T13:04:04.855Z,13.60
2019-03-17T13:05:04.361Z,13.50